createdAt,value
2023-02-21T00:02:43.562Z,99.61
2023-02-21T00:05:28.797Z,100.00
2023-02-21T00:08:16.175Z,100.00
2023-02-21T00:11:01.273Z,100.00
2023-02-21T00:13:47.250Z,100.00
2023-02-21T00:16:35.039Z,100.00
2023-02-21T00:19:20.576Z,100.00
2023-02-21T00:22:05.867Z,100.00
2023-02-21T00:24:52.847Z,100.00
2023-02-21T00:27:38.277Z,100.00
2023-02-21T00:30:24.037Z,100.00
2023-02-21T00:33:09.664Z,100.00
2023-02-21T00:35:55.997Z,99.89
2023-02-21T00:38:41.456Z,100.00
2023-02-21T00:41:27.795Z,100.00
2023-02-21T00:44:14.172Z,100.00
2023-02-21T00:46:59.760Z,100.00
2023-02-21T00:49:45.414Z,100.00
2023-02-21T00:52:31.237Z,100.00
2023-02-21T00:55:16.465Z,100.00
2023-02-21T00:58:03.329Z,100.00
2023-02-21T01:00:48.412Z,100.00
2023-02-21T01:03:33.593Z,100.00
2023-02-21T01:06:18.873Z,100.00
2023-02-21T01:09:06.049Z,100.00
2023-02-21T01:11:51.820Z,100.00
2023-02-21T01:14:38.746Z,100.00
2023-02-21T01:17:24.433Z,100.00
2023-02-21T01:20:10.427Z,100.00
2023-02-21T01:22:57.799Z,100.00
2023-02-21T01:25:43.151Z,100.00
2023-02-21T01:28:28.745Z,100.00
2023-02-21T01:31:15.531Z,100.00
2023-02-21T01:34:01.036Z,100.00
2023-02-21T01:36:46.232Z,100.00
2023-02-21T01:39:32.894Z,100.00
2023-02-21T01:42:19.334Z,100.00
2023-02-21T01:45:07.900Z,100.00
2023-02-21T01:47:54.541Z,100.00
2023-02-21T01:50:43.799Z,100.00
2023-02-21T01:53:33.716Z,100.00
2023-02-21T01:56:19.905Z,100.00
2023-02-21T01:59:09.016Z,100.00
2023-02-21T02:02:03.422Z,100.00
2023-02-21T02:04:52.577Z,100.00
2023-02-21T02:07:39.156Z,100.00
2023-02-21T02:10:28.191Z,100.00
2023-02-21T02:13:12.830Z,100.00
2023-02-21T02:15:54.266Z,100.00
2023-02-21T02:18:46.952Z,100.00
2023-02-21T02:21:55.596Z,100.00
2023-02-21T02:24:44.717Z,100.00
2023-02-21T02:27:39.358Z,100.00
2023-02-21T02:30:41.689Z,100.00
2023-02-21T02:33:43.171Z,100.00
2023-02-21T02:36:16.290Z,100.00
2023-02-21T02:38:54.362Z,100.00
2023-02-21T02:41:32.702Z,100.00
2023-02-21T02:44:07.378Z,100.00
2023-02-21T02:46:39.467Z,100.00
2023-02-21T02:49:11.828Z,100.00
2023-02-21T02:51:41.290Z,100.00
2023-02-21T02:54:11.221Z,100.00
2023-02-21T02:56:39.230Z,100.00
2023-02-21T02:59:10.127Z,100.00
2023-02-21T03:01:58.230Z,100.00
2023-02-21T03:04:49.957Z,100.00
2023-02-21T03:07:27.313Z,100.00
2023-02-21T03:10:10.983Z,100.00
2023-02-21T03:12:45.116Z,100.00
2023-02-21T03:15:19.920Z,100.00
2023-02-21T03:17:52.733Z,100.00
2023-02-21T03:20:22.136Z,100.00
2023-02-21T03:22:53.402Z,100.00
2023-02-21T03:25:23.826Z,100.00
2023-02-21T03:27:56.348Z,100.00
2023-02-21T03:30:27.456Z,100.00
2023-02-21T03:32:57.017Z,100.00
2023-02-21T03:35:30.363Z,100.00
2023-02-21T03:38:01.252Z,100.00
2023-02-21T03:40:31.692Z,100.00
2023-02-21T03:43:03.430Z,100.00
2023-02-21T03:45:36.052Z,100.00
2023-02-21T03:48:12.482Z,100.00
2023-02-21T03:50:42.303Z,100.00
2023-02-21T03:53:12.413Z,100.00
2023-02-21T03:55:44.554Z,100.00
2023-02-21T03:58:19.349Z,100.00
2023-02-21T04:00:47.787Z,100.00
2023-02-21T04:03:18.741Z,100.00
2023-02-21T04:05:56.191Z,100.00
2023-02-21T04:08:25.838Z,100.00
2023-02-21T04:10:53.794Z,100.00
2023-02-21T04:13:26.137Z,100.00
2023-02-21T04:15:56.012Z,100.00
2023-02-21T04:18:24.835Z,100.00
2023-02-21T04:20:54.793Z,100.00
2023-02-21T04:23:24.803Z,100.00
2023-02-21T04:25:53.314Z,100.00
2023-02-21T04:28:28.296Z,100.00
2023-02-21T04:30:56.618Z,100.00
2023-02-21T04:33:25.709Z,100.00
2023-02-21T04:35:53.596Z,100.00
2023-02-21T04:38:37.652Z,100.00
2023-02-21T04:41:06.362Z,100.00
2023-02-21T04:43:34.417Z,100.00
2023-02-21T04:46:02.419Z,100.00
2023-02-21T04:48:30.396Z,100.00
2023-02-21T04:51:13.525Z,100.00
2023-02-21T04:53:44.306Z,100.00
2023-02-21T04:56:12.699Z,100.00
2023-02-21T04:58:45.361Z,100.00
2023-02-21T05:01:14.542Z,100.00
2023-02-21T05:03:42.671Z,100.00
2023-02-21T05:06:10.836Z,100.00
2023-02-21T05:08:38.703Z,100.00
2023-02-21T05:11:08.768Z,100.00
2023-02-21T05:13:36.637Z,100.00
2023-02-21T05:16:04.539Z,100.00
2023-02-21T05:18:34.466Z,100.00
2023-02-21T05:21:03.434Z,100.00
2023-02-21T05:23:38.407Z,100.00
2023-02-21T05:26:09.971Z,100.00
2023-02-21T05:28:38.916Z,100.00
2023-02-21T05:31:07.787Z,100.00
2023-02-21T05:33:35.765Z,100.00
2023-02-21T05:36:03.965Z,100.00
2023-02-21T05:38:31.827Z,100.00
2023-02-21T05:40:59.853Z,100.00
2023-02-21T05:43:33.686Z,100.00
2023-02-21T05:46:02.013Z,100.00
2023-02-21T05:48:30.054Z,100.00
2023-02-21T05:50:57.985Z,100.00
2023-02-21T05:53:25.905Z,100.00
2023-02-21T05:55:53.787Z,100.00
2023-02-21T05:58:21.604Z,100.00
2023-02-21T06:00:52.597Z,100.00
2023-02-21T06:03:20.877Z,100.00
2023-02-21T06:05:48.729Z,100.00
2023-02-21T06:08:16.562Z,100.00
2023-02-21T06:10:44.374Z,100.00
2023-02-21T06:13:12.232Z,100.00
2023-02-21T06:15:40.153Z,100.00
2023-02-21T06:18:09.975Z,100.00
2023-02-21T06:20:37.949Z,100.00
2023-02-21T06:23:05.881Z,100.00
2023-02-21T06:25:33.787Z,100.00
2023-02-21T06:28:01.944Z,100.00
2023-02-21T06:30:29.915Z,100.00
2023-02-21T06:32:57.798Z,100.00
2023-02-21T06:35:27.111Z,100.00
2023-02-21T06:37:55.065Z,100.00
2023-02-21T06:40:22.941Z,100.00
2023-02-21T06:42:50.909Z,100.00
2023-02-21T06:45:19.017Z,100.00
2023-02-21T06:47:46.969Z,100.00
2023-02-21T06:50:15.390Z,100.00
2023-02-21T06:52:44.682Z,100.00
2023-02-21T06:55:12.539Z,100.00
2023-02-21T06:57:40.646Z,100.00
2023-02-21T07:00:09.821Z,100.00
2023-02-21T07:02:38.756Z,100.00
2023-02-21T07:05:07.829Z,100.00
2023-02-21T07:07:35.706Z,100.00
2023-02-21T07:10:06.056Z,100.00
2023-02-21T07:12:34.508Z,100.00
2023-02-21T07:15:02.349Z,100.00
2023-02-21T07:17:30.389Z,99.87
2023-02-21T07:19:58.358Z,100.00
2023-02-21T07:22:26.634Z,99.46
2023-02-21T07:24:55.097Z,99.65
2023-02-21T07:27:24.832Z,99.52
2023-02-21T07:29:52.790Z,99.29
2023-02-21T07:32:21.929Z,99.13
2023-02-21T07:34:50.336Z,98.59
2023-02-21T07:37:18.308Z,98.81
2023-02-21T07:39:46.273Z,98.62
2023-02-21T07:42:14.549Z,99.36
2023-02-21T07:44:48.089Z,99.47
2023-02-21T07:47:16.170Z,98.49
2023-02-21T07:49:44.043Z,98.56
2023-02-21T07:52:12.103Z,98.92
2023-02-21T07:54:40.090Z,98.66
2023-02-21T07:57:08.071Z,98.84
2023-02-21T07:59:35.913Z,99.49
2023-02-21T08:02:05.669Z,100.00
2023-02-21T08:04:33.757Z,97.93
2023-02-21T08:07:02.666Z,97.35
2023-02-21T08:09:30.555Z,97.16
2023-02-21T08:11:58.379Z,97.00
2023-02-21T08:14:26.294Z,97.56
2023-02-21T08:16:54.246Z,97.32
2023-02-21T08:19:23.924Z,96.73
2023-02-21T08:21:52.046Z,96.48
2023-02-21T08:24:20.624Z,96.60
2023-02-21T08:26:48.692Z,95.96
2023-02-21T08:29:18.204Z,95.33
2023-02-21T08:31:46.458Z,95.43
2023-02-21T08:34:15.183Z,94.60
2023-02-21T08:36:45.020Z,94.24
2023-02-21T08:39:12.964Z,94.14
2023-02-21T08:41:43.309Z,94.56
2023-02-21T08:44:12.345Z,94.83
2023-02-21T08:46:40.786Z,95.37
2023-02-21T08:49:09.622Z,95.04
2023-02-21T08:51:37.865Z,94.46
2023-02-21T08:54:08.066Z,94.34
2023-02-21T08:56:35.934Z,93.99
2023-02-21T08:59:05.845Z,94.66
2023-02-21T09:01:35.429Z,93.90
2023-02-21T09:04:05.245Z,93.69
2023-02-21T09:06:33.474Z,93.70
2023-02-21T09:09:01.793Z,93.08
2023-02-21T09:11:31.088Z,93.15
2023-02-21T09:13:59.017Z,93.61
2023-02-21T09:16:26.957Z,93.06
2023-02-21T09:18:56.982Z,92.88
2023-02-21T09:21:24.973Z,93.20
2023-02-21T09:23:54.920Z,92.82
2023-02-21T09:26:25.059Z,92.99
2023-02-21T09:28:54.340Z,92.34
2023-02-21T09:31:22.704Z,92.96
2023-02-21T09:33:50.686Z,93.19
2023-02-21T09:36:23.569Z,92.95
2023-02-21T09:38:52.286Z,92.19
2023-02-21T09:41:21.864Z,93.78
2023-02-21T09:43:52.591Z,93.64
2023-02-21T09:46:31.156Z,94.22
2023-02-21T09:48:59.960Z,94.03
2023-02-21T09:51:28.104Z,93.50
2023-02-21T09:53:59.574Z,93.14
2023-02-21T09:56:31.000Z,92.89
2023-02-21T09:58:59.912Z,93.74
2023-02-21T10:01:45.063Z,93.71
2023-02-21T10:04:25.872Z,92.00
2023-02-21T10:06:59.806Z,92.31
2023-02-21T10:09:39.580Z,91.15
2023-02-21T10:12:19.103Z,91.10
2023-02-21T10:15:03.617Z,92.39
2023-02-21T10:17:37.457Z,91.62
2023-02-21T10:20:12.654Z,91.01
2023-02-21T10:22:46.332Z,90.44
2023-02-21T10:25:24.070Z,91.40
2023-02-21T10:27:54.329Z,90.87
2023-02-21T10:30:29.248Z,91.44
2023-02-21T10:32:58.851Z,89.16
2023-02-21T10:35:27.221Z,88.36
2023-02-21T10:37:57.960Z,89.39
2023-02-21T10:40:34.643Z,86.19
2023-02-21T10:43:08.508Z,87.19
2023-02-21T10:45:41.447Z,86.39
2023-02-21T10:48:12.175Z,85.48
2023-02-21T10:50:50.169Z,85.11
2023-02-21T10:53:27.771Z,86.83
2023-02-21T10:56:23.816Z,87.19
2023-02-21T10:58:55.393Z,87.08
2023-02-21T11:01:31.794Z,86.45
2023-02-21T11:04:04.129Z,85.35
2023-02-21T11:06:36.954Z,84.89
2023-02-21T11:09:31.146Z,83.03
2023-02-21T11:12:05.096Z,83.76
2023-02-21T11:14:34.449Z,80.98
2023-02-21T11:17:16.864Z,80.03
2023-02-21T11:19:49.939Z,78.21
2023-02-21T11:22:21.722Z,74.42
2023-02-21T11:25:00.889Z,75.39
2023-02-21T11:27:32.987Z,72.69
2023-02-21T11:30:03.762Z,68.44
2023-02-21T11:32:36.026Z,69.02
2023-02-21T11:35:10.159Z,68.02
2023-02-21T11:37:51.064Z,66.39
2023-02-21T11:40:29.393Z,67.10
2023-02-21T11:43:22.249Z,66.01
2023-02-21T11:46:03.119Z,65.72
2023-02-21T11:48:36.806Z,65.43
2023-02-21T11:51:15.063Z,66.01
2023-02-21T11:53:44.971Z,65.76
2023-02-21T11:56:21.211Z,67.33
2023-02-21T11:58:59.746Z,68.01
2023-02-21T12:01:32.385Z,65.16
2023-02-21T12:04:11.849Z,63.42
2023-02-21T12:06:49.043Z,63.03
2023-02-21T12:09:26.804Z,64.14
2023-02-21T12:12:07.947Z,62.36
2023-02-21T12:14:48.821Z,62.93
2023-02-21T12:17:47.013Z,60.44
2023-02-21T12:20:34.177Z,60.64
2023-02-21T12:23:16.732Z,60.70
2023-02-21T12:26:28.626Z,58.36
2023-02-21T12:29:21.897Z,59.80
2023-02-21T12:32:03.597Z,61.85
2023-02-21T12:34:47.743Z,63.91
2023-02-21T12:37:24.744Z,63.37
2023-02-21T12:40:13.113Z,63.27
2023-02-21T12:42:52.470Z,62.43
2023-02-21T12:45:38.461Z,62.27
2023-02-21T12:48:13.596Z,62.61
2023-02-21T12:50:44.871Z,62.24
2023-02-21T12:53:17.457Z,60.28
2023-02-21T12:55:52.729Z,61.39
2023-02-21T12:58:25.123Z,60.99
2023-02-21T13:00:57.058Z,62.49
2023-02-21T13:03:37.413Z,62.89
2023-02-21T13:06:11.276Z,62.62
2023-02-21T13:08:52.071Z,61.95
2023-02-21T13:11:28.442Z,59.95
2023-02-21T13:13:57.443Z,60.81
2023-02-21T13:16:26.867Z,60.72
2023-02-21T13:19:00.297Z,61.41
2023-02-21T13:21:45.624Z,63.02
2023-02-21T13:24:42.902Z,61.67
2023-02-21T13:27:40.794Z,62.20
2023-02-21T13:30:15.920Z,63.45
2023-02-21T13:32:53.909Z,63.27
2023-02-21T13:35:27.976Z,62.20
2023-02-21T13:37:56.921Z,62.80
2023-02-21T13:40:32.821Z,62.66
2023-02-21T13:43:11.932Z,62.16
2023-02-21T13:45:40.407Z,60.52
2023-02-21T13:48:29.355Z,62.20
2023-02-21T13:50:59.037Z,60.65
2023-02-21T13:53:33.810Z,61.09
2023-02-21T13:56:19.135Z,60.99
2023-02-21T13:58:49.703Z,60.80
2023-02-21T14:01:26.794Z,61.55
2023-02-21T14:03:58.865Z,61.85
2023-02-21T14:06:34.769Z,63.33
2023-02-21T14:09:14.376Z,62.70
2023-02-21T14:11:48.130Z,63.88
2023-02-21T14:14:27.216Z,64.02
2023-02-21T14:17:02.267Z,63.46
2023-02-21T14:19:36.802Z,64.22
2023-02-21T14:22:11.636Z,64.59
2023-02-21T14:24:43.363Z,64.75
2023-02-21T14:27:34.956Z,63.50
2023-02-21T14:30:33.955Z,63.64
2023-02-21T14:33:19.234Z,63.56
2023-02-21T14:35:49.466Z,63.45
2023-02-21T14:38:22.466Z,65.12
2023-02-21T14:41:04.959Z,66.26
2023-02-21T14:43:56.126Z,65.79
2023-02-21T14:46:48.105Z,65.27
2023-02-21T14:49:55.634Z,66.72
2023-02-21T14:52:38.868Z,66.92
2023-02-21T14:55:27.193Z,66.91
2023-02-21T14:58:30.678Z,66.82
2023-02-21T15:01:09.446Z,67.42
2023-02-21T15:03:45.561Z,67.68
2023-02-21T15:06:21.089Z,67.53
2023-02-21T15:08:51.085Z,67.78
2023-02-21T15:11:26.308Z,68.58
2023-02-21T15:14:09.004Z,70.09
2023-02-21T15:16:45.472Z,69.27
2023-02-21T15:19:25.185Z,71.04
2023-02-21T15:22:17.448Z,70.50
2023-02-21T15:25:12.338Z,71.81
2023-02-21T15:27:53.525Z,71.82
2023-02-21T15:30:24.901Z,72.45
2023-02-21T15:32:59.926Z,72.84
2023-02-21T15:35:33.595Z,73.89
2023-02-21T15:38:04.574Z,74.62
2023-02-21T15:40:32.783Z,74.89
2023-02-21T15:43:02.167Z,75.61
2023-02-21T15:45:34.483Z,75.13
2023-02-21T15:48:03.413Z,75.73
2023-02-21T15:50:36.988Z,75.66
2023-02-21T15:53:17.086Z,76.30
2023-02-21T15:55:46.007Z,76.61
2023-02-21T15:58:18.012Z,76.96
2023-02-21T16:00:47.395Z,77.26
2023-02-21T16:03:50.430Z,77.58
2023-02-21T16:06:23.694Z,78.35
2023-02-21T16:08:58.947Z,78.93
2023-02-21T16:11:39.662Z,79.39
2023-02-21T16:14:08.517Z,79.77
2023-02-21T16:16:37.014Z,79.95
2023-02-21T16:19:05.076Z,80.58
2023-02-21T16:21:35.313Z,81.51
2023-02-21T16:24:17.047Z,82.97
2023-02-21T16:27:03.185Z,83.28
2023-02-21T16:29:31.071Z,83.44
2023-02-21T16:31:59.175Z,83.76
2023-02-21T16:34:29.874Z,83.85
2023-02-21T16:37:05.650Z,85.07
2023-02-21T16:39:33.341Z,84.57
2023-02-21T16:42:01.774Z,85.91
2023-02-21T16:44:30.054Z,85.51
2023-02-21T16:46:57.969Z,86.75
2023-02-21T16:49:26.064Z,86.82
2023-02-21T16:51:54.445Z,87.90
2023-02-21T16:54:23.784Z,89.40
2023-02-21T16:56:54.452Z,89.25
2023-02-21T16:59:25.547Z,88.99
2023-02-21T17:01:53.582Z,89.11
2023-02-21T17:04:25.159Z,89.88
2023-02-21T17:06:55.822Z,91.01
2023-02-21T17:09:27.684Z,92.29
2023-02-21T17:11:56.146Z,92.67
2023-02-21T17:14:24.042Z,93.49
2023-02-21T17:16:51.906Z,93.75
2023-02-21T17:19:21.706Z,93.53
2023-02-21T17:21:50.711Z,94.75
2023-02-21T17:24:20.028Z,94.56
2023-02-21T17:26:49.299Z,95.33
2023-02-21T17:29:17.213Z,95.55
2023-02-21T17:31:45.181Z,95.44
2023-02-21T17:34:14.020Z,96.17
2023-02-21T17:36:42.056Z,96.85
2023-02-21T17:39:10.871Z,97.23
2023-02-21T17:41:45.790Z,96.84
2023-02-21T17:44:15.959Z,97.33
2023-02-21T17:46:48.394Z,97.92
2023-02-21T17:49:18.693Z,98.39
2023-02-21T17:51:47.648Z,97.88
2023-02-21T17:54:16.366Z,97.84
2023-02-21T17:56:44.402Z,97.55
2023-02-21T17:59:13.010Z,98.42
2023-02-21T18:01:42.974Z,98.92
2023-02-21T18:04:13.607Z,99.27
2023-02-21T18:06:42.037Z,99.74
2023-02-21T18:09:11.016Z,100.00
2023-02-21T18:11:39.055Z,100.00
2023-02-21T18:14:07.002Z,99.81
2023-02-21T18:16:34.950Z,100.00
2023-02-21T18:19:04.266Z,99.96
2023-02-21T18:21:32.186Z,99.88
2023-02-21T18:24:00.346Z,99.68
2023-02-21T18:26:28.280Z,99.36
2023-02-21T18:28:56.253Z,99.49
2023-02-21T18:31:24.357Z,99.72
2023-02-21T18:33:52.322Z,100.00
2023-02-21T18:36:21.555Z,100.00
2023-02-21T18:38:49.598Z,100.00
2023-02-21T18:41:20.311Z,99.23
2023-02-21T18:43:48.278Z,99.57
2023-02-21T18:46:19.141Z,99.57
2023-02-21T18:48:48.858Z,98.65
2023-02-21T18:51:20.054Z,99.53
2023-02-21T18:53:49.973Z,99.60
2023-02-21T18:56:20.806Z,98.60
2023-02-21T18:58:49.681Z,98.55
2023-02-21T19:01:20.766Z,98.85
2023-02-21T19:03:51.793Z,99.98
2023-02-21T19:06:21.161Z,100.00
2023-02-21T19:08:51.037Z,100.00
2023-02-21T19:11:19.241Z,100.00
2023-02-21T19:13:50.312Z,99.67
2023-02-21T19:16:20.615Z,100.00
2023-02-21T19:18:51.390Z,98.95
2023-02-21T19:21:19.333Z,98.52
2023-02-21T19:23:47.680Z,97.89
2023-02-21T19:26:17.096Z,97.39
2023-02-21T19:28:45.598Z,99.29
2023-02-21T19:31:15.131Z,99.94
2023-02-21T19:33:44.822Z,98.76
2023-02-21T19:36:13.363Z,99.14
2023-02-21T19:38:41.410Z,100.00
2023-02-21T19:41:09.944Z,100.00
2023-02-21T19:43:39.225Z,99.92
2023-02-21T19:46:07.394Z,98.87
2023-02-21T19:48:35.346Z,97.43
2023-02-21T19:51:03.409Z,97.96
2023-02-21T19:53:31.424Z,100.00
2023-02-21T19:55:59.367Z,100.00
2023-02-21T19:58:27.212Z,100.00
2023-02-21T20:00:56.649Z,100.00
2023-02-21T20:03:24.594Z,100.00
2023-02-21T20:05:52.630Z,100.00
2023-02-21T20:08:20.709Z,100.00
2023-02-21T20:10:49.092Z,100.00
2023-02-21T20:13:17.083Z,100.00
2023-02-21T20:15:45.452Z,100.00
2023-02-21T20:18:15.609Z,100.00
2023-02-21T20:20:43.822Z,100.00
2023-02-21T20:23:13.956Z,100.00
2023-02-21T20:25:41.850Z,100.00
2023-02-21T20:28:09.753Z,100.00
2023-02-21T20:30:38.467Z,100.00
2023-02-21T20:33:06.842Z,100.00
2023-02-21T20:35:36.431Z,100.00
2023-02-21T20:38:05.825Z,100.00
2023-02-21T20:40:33.830Z,100.00
2023-02-21T20:43:02.514Z,100.00
2023-02-21T20:45:30.532Z,100.00
2023-02-21T20:47:58.546Z,100.00
2023-02-21T20:50:26.531Z,100.00
2023-02-21T20:52:55.800Z,100.00
2023-02-21T20:55:25.157Z,100.00
2023-02-21T20:57:53.099Z,100.00
2023-02-21T21:00:23.553Z,100.00
2023-02-21T21:02:51.778Z,100.00
2023-02-21T21:05:21.133Z,100.00
2023-02-21T21:07:49.466Z,100.00
2023-02-21T21:10:19.306Z,100.00
2023-02-21T21:12:49.426Z,100.00
2023-02-21T21:15:18.062Z,100.00
2023-02-21T21:17:46.589Z,100.00
2023-02-21T21:20:17.763Z,100.00
2023-02-21T21:22:46.451Z,100.00
2023-02-21T21:25:14.988Z,100.00
2023-02-21T21:27:45.202Z,100.00
2023-02-21T21:30:18.115Z,100.00
2023-02-21T21:32:46.883Z,100.00
2023-02-21T21:35:17.661Z,100.00
2023-02-21T21:37:45.479Z,100.00
2023-02-21T21:40:16.857Z,100.00
2023-02-21T21:42:48.982Z,100.00
2023-02-21T21:45:23.908Z,100.00
2023-02-21T21:47:53.853Z,100.00
2023-02-21T21:50:22.816Z,100.00
2023-02-21T21:52:52.688Z,100.00
2023-02-21T21:55:24.349Z,100.00
2023-02-21T21:57:54.910Z,100.00
2023-02-21T22:00:26.014Z,100.00
2023-02-21T22:02:57.419Z,100.00
2023-02-21T22:05:26.081Z,100.00
2023-02-21T22:07:54.240Z,100.00
2023-02-21T22:10:23.962Z,100.00
2023-02-21T22:12:55.983Z,100.00
2023-02-21T22:15:26.725Z,100.00
2023-02-21T22:17:55.270Z,100.00
2023-02-21T22:20:31.259Z,100.00
2023-02-21T22:23:00.075Z,100.00
2023-02-21T22:25:30.369Z,100.00
2023-02-21T22:28:03.831Z,100.00
2023-02-21T22:30:31.874Z,100.00
2023-02-21T22:32:59.902Z,100.00
2023-02-21T22:35:28.569Z,100.00
2023-02-21T22:38:01.934Z,100.00
2023-02-21T22:40:31.097Z,100.00
2023-02-21T22:43:02.902Z,100.00
2023-02-21T22:45:33.152Z,100.00
2023-02-21T22:48:03.321Z,100.00
2023-02-21T22:50:36.929Z,100.00
2023-02-21T22:53:08.243Z,100.00
2023-02-21T22:55:38.118Z,100.00
2023-02-21T22:58:09.976Z,100.00
2023-02-21T23:00:39.228Z,100.00
2023-02-21T23:03:13.074Z,100.00
2023-02-21T23:05:43.564Z,100.00
2023-02-21T23:08:12.873Z,100.00
2023-02-21T23:10:42.458Z,100.00
2023-02-21T23:13:14.175Z,100.00
2023-02-21T23:15:43.180Z,100.00
2023-02-21T23:18:13.051Z,100.00
2023-02-21T23:20:44.736Z,100.00
2023-02-21T23:23:14.058Z,100.00
2023-02-21T23:25:41.897Z,100.00
2023-02-21T23:28:14.422Z,100.00
2023-02-21T23:30:43.887Z,100.00
2023-02-21T23:33:15.664Z,100.00
2023-02-21T23:35:44.324Z,100.00
2023-02-21T23:38:15.532Z,100.00
2023-02-21T23:40:44.716Z,100.00
2023-02-21T23:43:19.182Z,100.00
2023-02-21T23:45:48.243Z,100.00
2023-02-21T23:48:16.491Z,100.00
2023-02-21T23:50:46.491Z,100.00
2023-02-21T23:53:16.125Z,100.00
2023-02-21T23:55:46.787Z,100.00
2023-02-21T23:58:19.712Z,100.00
